UNKL METAR and TAF | Updated Today

UNKL METAR

Yemelyanovo Airport

Observation time: 9 min. ago

UNKL 070900Z 24003MPS 9999 -SHSN SCT030CB 01/M02 Q1011 R29/190040 NOSIG RMK QFE733

Need help? Read our tutorial on how to read METARs or read the parsed version below.

Yemelyanovo Airport (UNKL) METAR

  • Weather conditions on Tue, 07 Dec 2021 09:00:00 +0000 (9 min. ago):
  • Present conditions: Light showers of snow
  • Clouds: Scattered at 914 meters, cumulonimbus
  • Visibility: Greater than 10 km
  • Wind: 240 degrees at 3 knots
  • Temperature: 1 celsius
  • Dew point: -2 celsius
  • Pressure: 1011 millibars
  • Remarks: QFE733


Useful to know...

UNKL TAF

Yemelyanovo Airport

TAF UNKL 070756Z 0709/0809 26005G12MPS 6000 -SHSN SCT016CB
Observation time: 73 min. ago
Need help? Read our tutorial on how to read TAFs or read the parsed version below.

Parsed version of TAF for Yemelyanovo Airport (UNKL)

  • From 07 December at 09:00 UTC, to day 08 of the month at 09:00 UTC
  • Clouds: Scattered at 488 meters, cumulonimbus
  • Visibility: 6000 meters
  • Wind: 260 degrees at 5
  • Other: Light showers of snow

Airports near UNKL